sensor_id;sensor_type;location;lat;lon;timestamp;pressure;altitude;pressure_sealevel;temperature;humidity
61506;BME280;47366;51.916;4.574;2024-01-25T00:02:01;102953.00;;;8.81;86.70
61506;BME280;47366;51.916;4.574;2024-01-25T00:04:28;102954.84;;;8.79;86.93
61506;BME280;47366;51.916;4.574;2024-01-25T00:06:53;102948.56;;;8.77;87.17
61506;BME280;47366;51.916;4.574;2024-01-25T00:09:18;102954.81;;;8.80;87.16
61506;BME280;47366;51.916;4.574;2024-01-25T00:11:44;102937.84;;;8.74;87.31
61506;BME280;47366;51.916;4.574;2024-01-25T00:14:09;102937.84;;;8.72;87.57
61506;BME280;47366;51.916;4.574;2024-01-25T00:16:34;102929.75;;;8.72;87.65
61506;BME280;47366;51.916;4.574;2024-01-25T00:19:00;102936.97;;;8.71;87.60
61506;BME280;47366;51.916;4.574;2024-01-25T00:21:25;102945.16;;;8.67;87.92
61506;BME280;47366;51.916;4.574;2024-01-25T00:23:50;102939.91;;;8.61;88.26
61506;BME280;47366;51.916;4.574;2024-01-25T00:26:16;102936.28;;;8.62;88.36
61506;BME280;47366;51.916;4.574;2024-01-25T00:28:41;102920.19;;;8.56;88.29
61506;BME280;47366;51.916;4.574;2024-01-25T00:31:06;102929.97;;;8.61;88.55
61506;BME280;47366;51.916;4.574;2024-01-25T00:33:32;102928.25;;;8.59;88.33
61506;BME280;47366;51.916;4.574;2024-01-25T00:35:57;102936.34;;;8.59;88.51
61506;BME280;47366;51.916;4.574;2024-01-25T00:38:23;102930.16;;;8.52;88.83
61506;BME280;47366;51.916;4.574;2024-01-25T00:40:49;102944.44;;;8.59;88.91
61506;BME280;47366;51.916;4.574;2024-01-25T00:43:14;102940.00;;;8.55;88.94
61506;BME280;47366;51.916;4.574;2024-01-25T00:45:40;102945.41;;;8.56;89.03
61506;BME280;47366;51.916;4.574;2024-01-25T00:48:05;102940.13;;;8.48;89.19
61506;BME280;47366;51.916;4.574;2024-01-25T00:50:31;102942.00;;;8.46;89.52
61506;BME280;47366;51.916;4.574;2024-01-25T00:52:57;102938.50;;;8.40;89.50
61506;BME280;47366;51.916;4.574;2024-01-25T00:55:23;102947.41;;;8.43;89.69
61506;BME280;47366;51.916;4.574;2024-01-25T00:57:48;102951.09;;;8.39;89.93
61506;BME280;47366;51.916;4.574;2024-01-25T01:00:14;102940.31;;;8.38;89.83
61506;BME280;47366;51.916;4.574;2024-01-25T01:02:42;102948.34;;;8.42;89.94
61506;BME280;47366;51.916;4.574;2024-01-25T01:05:09;102947.47;;;8.39;89.62
61506;BME280;47366;51.916;4.574;2024-01-25T01:07:34;102947.53;;;8.36;89.80
61506;BME280;47366;51.916;4.574;2024-01-25T01:10:00;102965.53;;;8.37;90.15
61506;BME280;47366;51.916;4.574;2024-01-25T01:12:25;102965.56;;;8.35;90.12
61506;BME280;47366;51.916;4.574;2024-01-25T01:14:50;102966.50;;;8.33;90.25
61506;BME280;47366;51.916;4.574;2024-01-25T01:17:16;102979.97;;;8.34;89.97
61506;BME280;47366;51.916;4.574;2024-01-25T01:19:43;102967.47;;;8.28;90.21
61506;BME280;47366;51.916;4.574;2024-01-25T01:22:08;102984.53;;;8.32;90.53
61506;BME280;47366;51.916;4.574;2024-01-25T01:24:33;102994.38;;;8.35;90.24
61506;BME280;47366;51.916;4.574;2024-01-25T01:26:59;102995.25;;;8.35;90.38
61506;BME280;47366;51.916;4.574;2024-01-25T01:29:24;102984.69;;;8.23;90.42
61506;BME280;47366;51.916;4.574;2024-01-25T01:31:50;102988.19;;;8.28;90.63
61506;BME280;47366;51.916;4.574;2024-01-25T01:34:15;102982.00;;;8.21;90.80
61506;BME280;47366;51.916;4.574;2024-01-25T01:36:43;102980.25;;;8.17;90.97
61506;BME280;47366;51.916;4.574;2024-01-25T01:39:08;103002.72;;;8.21;91.09
61506;BME280;47366;51.916;4.574;2024-01-25T01:41:34;103008.09;;;8.21;91.42
61506;BME280;47366;51.916;4.574;2024-01-25T01:43:59;103007.25;;;8.17;91.36
61506;BME280;47366;51.916;4.574;2024-01-25T01:48:56;103020.78;;;8.16;91.37
61506;BME280;47366;51.916;4.574;2024-01-25T01:51:21;103022.56;;;8.17;91.57
61506;BME280;47366;51.916;4.574;2024-01-25T01:53:47;103018.13;;;8.13;91.56
61506;BME280;47366;51.916;4.574;2024-01-25T01:56:14;103001.09;;;8.11;91.88
61506;BME280;47366;51.916;4.574;2024-01-25T01:58:39;103015.47;;;8.09;92.16
61506;BME280;47366;51.916;4.574;2024-01-25T02:01:05;103019.13;;;8.08;91.79
61506;BME280;47366;51.916;4.574;2024-01-25T02:03:30;103018.22;;;8.08;91.90
61506;BME280;47366;51.916;4.574;2024-01-25T02:05:56;103018.19;;;8.09;91.98
61506;BME280;47366;51.916;4.574;2024-01-25T02:08:27;103022.69;;;8.09;92.20
61506;BME280;47366;51.916;4.574;2024-01-25T02:10:53;103028.09;;;8.07;91.99
61506;BME280;47366;51.916;4.574;2024-01-25T02:13:18;103022.78;;;8.03;92.20
61506;BME280;47366;51.916;4.574;2024-01-25T02:15:43;103022.81;;;8.01;92.28
61506;BME280;47366;51.916;4.574;2024-01-25T02:18:09;103020.13;;;8.00;92.29
61506;BME280;47366;51.916;4.574;2024-01-25T02:20:35;103012.06;;;7.98;92.22
61506;BME280;47366;51.916;4.574;2024-01-25T02:23:00;103019.25;;;7.99;92.11
61506;BME280;47366;51.916;4.574;2024-01-25T02:25:25;103029.22;;;7.94;92.13
61506;BME280;47366;51.916;4.574;2024-01-25T02:27:51;103025.72;;;7.89;92.46
61506;BME280;47366;51.916;4.574;2024-01-25T02:30:16;103022.03;;;7.95;92.24
61506;BME280;47366;51.916;4.574;2024-01-25T02:32:43;103024.78;;;7.92;92.30
61506;BME280;47366;51.916;4.574;2024-01-25T02:35:09;103018.59;;;7.83;92.34
61506;BME280;47366;51.916;4.574;2024-01-25T02:37:34;103032.94;;;7.87;92.39
61506;BME280;47366;51.916;4.574;2024-01-25T02:39:59;103012.38;;;7.78;92.40
61506;BME280;47366;51.916;4.574;2024-01-25T02:42:25;103024.97;;;7.78;92.71
61506;BME280;47366;51.916;4.574;2024-01-25T02:44:50;103025.91;;;7.75;92.91
61506;BME280;47366;51.916;4.574;2024-01-25T02:47:15;103011.50;;;7.78;93.24
61506;BME280;47366;51.916;4.574;2024-01-25T02:49:41;103015.00;;;7.81;92.91
61506;BME280;47366;51.916;4.574;2024-01-25T02:52:06;103025.81;;;7.81;92.91
61506;BME280;47366;51.916;4.574;2024-01-25T02:54:34;103020.53;;;7.74;93.45
61506;BME280;47366;51.916;4.574;2024-01-25T02:57:01;103022.34;;;7.73;93.66
61506;BME280;47366;51.916;4.574;2024-01-25T02:59:27;103034.06;;;7.71;93.58
61506;BME280;47366;51.916;4.574;2024-01-25T03:01:54;103037.66;;;7.70;93.55
61506;BME280;47366;51.916;4.574;2024-01-25T03:04:19;103044.91;;;7.68;93.70
61506;BME280;47366;51.916;4.574;2024-01-25T03:06:44;103041.28;;;7.69;93.78
61506;BME280;47366;51.916;4.574;2024-01-25T03:09:10;103018.03;;;7.61;93.79
61506;BME280;47366;51.916;4.574;2024-01-25T03:11:35;103023.34;;;7.64;93.48
61506;BME280;47366;51.916;4.574;2024-01-25T03:14:00;103026.97;;;7.63;93.73
61506;BME280;47366;51.916;4.574;2024-01-25T03:16:26;103028.84;;;7.58;93.98
61506;BME280;47366;51.916;4.574;2024-01-25T03:18:52;103027.94;;;7.59;93.97
61506;BME280;47366;51.916;4.574;2024-01-25T03:21:17;103019.00;;;7.54;93.97
61506;BME280;47366;51.916;4.574;2024-01-25T03:23:42;103019.97;;;7.50;93.90
61506;BME280;47366;51.916;4.574;2024-01-25T03:26:08;103020.78;;;7.55;93.93
61506;BME280;47366;51.916;4.574;2024-01-25T03:28:36;103033.38;;;7.55;93.73
61506;BME280;47366;51.916;4.574;2024-01-25T03:31:03;103021.75;;;7.51;93.90
61506;BME280;47366;51.916;4.574;2024-01-25T03:33:29;103019.03;;;7.53;93.87
61506;BME280;47366;51.916;4.574;2024-01-25T03:35:54;103019.97;;;7.50;93.79
61506;BME280;47366;51.916;4.574;2024-01-25T03:38:20;103019.13;;;7.45;93.86
61506;BME280;47366;51.916;4.574;2024-01-25T03:40:45;103027.22;;;7.45;94.21
61506;BME280;47366;51.916;4.574;2024-01-25T03:43:11;103029.09;;;7.41;94.00
61506;BME280;47366;51.916;4.574;2024-01-25T03:45:36;103026.34;;;7.43;94.11
61506;BME280;47366;51.916;4.574;2024-01-25T03:48:02;103020.09;;;7.41;94.36
61506;BME280;47366;51.916;4.574;2024-01-25T03:50:27;103014.75;;;7.38;94.67
61506;BME280;47366;51.916;4.574;2024-01-25T03:52:53;103018.31;;;7.40;94.33
61506;BME280;47366;51.916;4.574;2024-01-25T03:55:18;103030.91;;;7.38;94.57
61506;BME280;47366;51.916;4.574;2024-01-25T03:57:44;103038.13;;;7.37;94.25
61506;BME280;47366;51.916;4.574;2024-01-25T04:00:10;103033.66;;;7.33;94.45
61506;BME280;47366;51.916;4.574;2024-01-25T04:02:36;103029.28;;;7.26;94.22
61506;BME280;47366;51.916;4.574;2024-01-25T04:05:02;103025.75;;;7.22;94.49
61506;BME280;47366;51.916;4.574;2024-01-25T04:07:27;103024.84;;;7.20;94.42
61506;BME280;47366;51.916;4.574;2024-01-25T04:09:53;103022.22;;;7.14;94.36
61506;BME280;47366;51.916;4.574;2024-01-25T04:12:18;103038.38;;;7.16;94.42
61506;BME280;47366;51.916;4.574;2024-01-25T04:14:44;103036.63;;;7.10;94.60
61506;BME280;47366;51.916;4.574;2024-01-25T04:17:09;103035.81;;;7.07;94.65
61506;BME280;47366;51.916;4.574;2024-01-25T04:19:35;103027.72;;;7.05;94.72
61506;BME280;47366;51.916;4.574;2024-01-25T04:22:01;103024.25;;;6.97;94.58
61506;BME280;47366;51.916;4.574;2024-01-25T04:24:26;103031.44;;;6.95;94.54
61506;BME280;47366;51.916;4.574;2024-01-25T04:26:51;103029.72;;;6.88;94.57
61506;BME280;47366;51.916;4.574;2024-01-25T04:29:17;103027.03;;;6.86;94.85
61506;BME280;47366;51.916;4.574;2024-01-25T04:31:43;103029.75;;;6.85;94.99
61506;BME280;47366;51.916;4.574;2024-01-25T04:34:10;103036.13;;;6.77;94.85
61506;BME280;47366;51.916;4.574;2024-01-25T04:36:35;103033.53;;;6.68;94.84
61506;BME280;47366;51.916;4.574;2024-01-25T04:39:01;103025.53;;;6.59;94.89
61506;BME280;47366;51.916;4.574;2024-01-25T04:41:26;103037.22;;;6.58;94.73
61506;BME280;47366;51.916;4.574;2024-01-25T04:43:52;103028.28;;;6.53;94.39
61506;BME280;47366;51.916;4.574;2024-01-25T04:46:17;103011.31;;;6.46;94.39
61506;BME280;47366;51.916;4.574;2024-01-25T04:48:42;103009.53;;;6.41;94.70
61506;BME280;47366;51.916;4.574;2024-01-25T04:51:08;103008.69;;;6.37;94.53
61506;BME280;47366;51.916;4.574;2024-01-25T04:53:33;103010.50;;;6.33;94.92
61506;BME280;47366;51.916;4.574;2024-01-25T04:55:58;103034.69;;;6.38;95.06
61506;BME280;47366;51.916;4.574;2024-01-25T04:58:24;103022.19;;;6.31;95.30
61506;BME280;47366;51.916;4.574;2024-01-25T05:00:50;103031.16;;;6.31;95.45
61506;BME280;47366;51.916;4.574;2024-01-25T05:03:15;103028.47;;;6.31;95.51
61506;BME280;47366;51.916;4.574;2024-01-25T05:05:41;103036.53;;;6.31;95.27
61506;BME280;47366;51.916;4.574;2024-01-25T05:08:06;103043.75;;;6.26;95.71
61506;BME280;47366;51.916;4.574;2024-01-25T05:10:32;103041.09;;;6.23;95.75
61506;BME280;47366;51.916;4.574;2024-01-25T05:12:57;103045.59;;;6.21;95.77
61506;BME280;47366;51.916;4.574;2024-01-25T05:15:22;103054.59;;;6.19;95.48
61506;BME280;47366;51.916;4.574;2024-01-25T05:17:47;103059.13;;;6.15;95.35
61506;BME280;47366;51.916;4.574;2024-01-25T05:20:13;103054.66;;;6.11;95.64
61506;BME280;47366;51.916;4.574;2024-01-25T05:22:40;103074.38;;;6.10;95.75
61506;BME280;47366;51.916;4.574;2024-01-25T05:25:07;103067.25;;;6.04;95.73
61506;BME280;47366;51.916;4.574;2024-01-25T05:27:33;103073.53;;;6.08;96.02
61506;BME280;47366;51.916;4.574;2024-01-25T05:29:59;103069.94;;;6.06;96.15
61506;BME280;47366;51.916;4.574;2024-01-25T05:32:24;103055.63;;;5.98;95.64
61506;BME280;47366;51.916;4.574;2024-01-25T05:34:49;103054.75;;;5.95;96.04
61506;BME280;47366;51.916;4.574;2024-01-25T05:37:14;103054.78;;;5.94;95.93
61506;BME280;47366;51.916;4.574;2024-01-25T05:39:40;103052.97;;;5.88;95.69
61506;BME280;47366;51.916;4.574;2024-01-25T05:42:05;103051.19;;;5.89;96.05
61506;BME280;47366;51.916;4.574;2024-01-25T05:44:31;103067.31;;;5.92;96.50
61506;BME280;47366;51.916;4.574;2024-01-25T05:46:56;103066.41;;;5.88;96.42
61506;BME280;47366;51.916;4.574;2024-01-25T05:49:21;103062.84;;;5.88;96.87
61506;BME280;47366;51.916;4.574;2024-01-25T05:51:47;103053.03;;;5.79;97.10
61506;BME280;47366;51.916;4.574;2024-01-25T05:54:12;103057.53;;;5.82;96.85
61506;BME280;47366;51.916;4.574;2024-01-25T05:56:37;103056.59;;;5.81;96.72
61506;BME280;47366;51.916;4.574;2024-01-25T05:59:03;103052.16;;;5.75;96.43
61506;BME280;47366;51.916;4.574;2024-01-25T06:01:28;103065.59;;;5.79;96.66
61506;BME280;47366;51.916;4.574;2024-01-25T06:03:54;103078.13;;;5.78;96.57
61506;BME280;47366;51.916;4.574;2024-01-25T06:06:19;103072.78;;;5.75;96.73
61506;BME280;47366;51.916;4.574;2024-01-25T06:08:45;103075.47;;;5.72;96.91
61506;BME280;47366;51.916;4.574;2024-01-25T06:11:10;103075.44;;;5.78;96.62
61506;BME280;47366;51.916;4.574;2024-01-25T06:13:36;103069.22;;;5.74;96.75
61506;BME280;47366;51.916;4.574;2024-01-25T06:16:01;103070.09;;;5.72;96.55
61506;BME280;47366;51.916;4.574;2024-01-25T06:18:27;103070.16;;;5.64;97.15
61506;BME280;47366;51.916;4.574;2024-01-25T06:20:52;103070.16;;;5.66;97.25
61506;BME280;47366;51.916;4.574;2024-01-25T06:23:18;103072.84;;;5.66;97.19
61506;BME280;47366;51.916;4.574;2024-01-25T06:25:43;103079.09;;;5.72;96.99
61506;BME280;47366;51.916;4.574;2024-01-25T06:28:08;103075.50;;;5.69;97.00
61506;BME280;47366;51.916;4.574;2024-01-25T06:30:34;103066.56;;;5.65;97.52
61506;BME280;47366;51.916;4.574;2024-01-25T06:32:59;103050.44;;;5.58;97.71
61506;BME280;47366;51.916;4.574;2024-01-25T06:35:25;103057.63;;;5.60;97.05
61506;BME280;47366;51.916;4.574;2024-01-25T06:37:50;103050.50;;;5.51;97.12
61506;BME280;47366;51.916;4.574;2024-01-25T06:40:15;103072.88;;;5.58;97.17
61506;BME280;47366;51.916;4.574;2024-01-25T06:42:41;103078.25;;;5.58;97.04
61506;BME280;47366;51.916;4.574;2024-01-25T06:45:07;103077.38;;;5.51;97.16
61506;BME280;47366;51.916;4.574;2024-01-25T06:47:33;103078.25;;;5.58;97.48
61506;BME280;47366;51.916;4.574;2024-01-25T06:49:58;103075.56;;;5.55;97.46
61506;BME280;47366;51.916;4.574;2024-01-25T06:52:23;103060.34;;;5.48;97.12
61506;BME280;47366;51.916;4.574;2024-01-25T06:54:49;103055.00;;;5.46;97.50
61506;BME280;47366;51.916;4.574;2024-01-25T06:57:14;103060.38;;;5.49;96.99
61506;BME280;47366;51.916;4.574;2024-01-25T06:59:40;103057.72;;;5.40;97.32
61506;BME280;47366;51.916;4.574;2024-01-25T07:02:05;103062.19;;;5.40;97.45
61506;BME280;47366;51.916;4.574;2024-01-25T07:04:31;103081.88;;;5.45;97.69
61506;BME280;47366;51.916;4.574;2024-01-25T07:06:56;103079.19;;;5.43;97.97
61506;BME280;47366;51.916;4.574;2024-01-25T07:09:21;103067.56;;;5.44;97.61
61506;BME280;47366;51.916;4.574;2024-01-25T07:11:47;103082.78;;;5.48;97.56
61506;BME280;47366;51.916;4.574;2024-01-25T07:14:12;103057.69;;;5.43;97.72
61506;BME280;47366;51.916;4.574;2024-01-25T07:16:38;103064.91;;;5.41;97.78
61506;BME280;47366;51.916;4.574;2024-01-25T07:19:03;103080.13;;;5.44;97.70
61506;BME280;47366;51.916;4.574;2024-01-25T07:21:29;103083.69;;;5.43;97.46
61506;BME280;47366;51.916;4.574;2024-01-25T07:23:59;103094.44;;;5.44;98.14
61506;BME280;47366;51.916;4.574;2024-01-25T07:26:24;103083.69;;;5.38;98.46
61506;BME280;47366;51.916;4.574;2024-01-25T07:28:50;103090.00;;;5.39;99.94
61506;BME280;47366;51.916;4.574;2024-01-25T07:31:19;103088.19;;;5.39;100.00
61506;BME280;47366;51.916;4.574;2024-01-25T07:33:46;103087.28;;;5.46;100.00
61506;BME280;47366;51.916;4.574;2024-01-25T07:36:12;103078.28;;;5.49;99.80
61506;BME280;47366;51.916;4.574;2024-01-25T07:38:38;103072.00;;;5.51;99.64
61506;BME280;47366;51.916;4.574;2024-01-25T07:41:03;103066.66;;;5.48;98.96
61506;BME280;47366;51.916;4.574;2024-01-25T07:43:29;103076.47;;;5.52;98.60
61506;BME280;47366;51.916;4.574;2024-01-25T07:45:54;103088.13;;;5.56;98.75
61506;BME280;47366;51.916;4.574;2024-01-25T07:48:19;103090.81;;;5.53;98.47
61506;BME280;47366;51.916;4.574;2024-01-25T07:50:44;103100.66;;;5.52;98.29
61506;BME280;47366;51.916;4.574;2024-01-25T07:53:10;103097.97;;;5.54;98.33
61506;BME280;47366;51.916;4.574;2024-01-25T07:55:37;103095.28;;;5.54;98.46
61506;BME280;47366;51.916;4.574;2024-01-25T07:58:02;103050.53;;;5.48;98.96
61506;BME280;47366;51.916;4.574;2024-01-25T08:00:28;103044.22;;;5.54;98.90
61506;BME280;47366;51.916;4.574;2024-01-25T08:02:53;103071.97;;;5.59;98.90
61506;BME280;47366;51.916;4.574;2024-01-25T08:05:18;103069.28;;;5.59;98.73
61506;BME280;47366;51.916;4.574;2024-01-25T08:07:45;103066.59;;;5.58;98.53
61506;BME280;47366;51.916;4.574;2024-01-25T08:10:10;103058.53;;;5.54;99.62
61506;BME280;47366;51.916;4.574;2024-01-25T08:12:35;103075.56;;;5.57;99.69
61506;BME280;47366;51.916;4.574;2024-01-25T08:15:01;103080.03;;;5.59;100.00
61506;BME280;47366;51.916;4.574;2024-01-25T08:17:26;103071.94;;;5.62;100.00
61506;BME280;47366;51.916;4.574;2024-01-25T08:19:52;103066.53;;;5.67;99.75
61506;BME280;47366;51.916;4.574;2024-01-25T08:22:17;103060.28;;;5.68;99.79
61506;BME280;47366;51.916;4.574;2024-01-25T08:24:42;103075.47;;;5.73;99.56
61506;BME280;47366;51.916;4.574;2024-01-25T08:27:08;103077.31;;;5.70;99.37
61506;BME280;47366;51.916;4.574;2024-01-25T08:29:34;103082.66;;;5.73;99.12
61506;BME280;47366;51.916;4.574;2024-01-25T08:31:59;103083.50;;;5.77;98.88
61506;BME280;47366;51.916;4.574;2024-01-25T08:34:24;103079.97;;;5.74;99.53
61506;BME280;47366;51.916;4.574;2024-01-25T08:36:50;103084.41;;;5.79;99.24
61506;BME280;47366;51.916;4.574;2024-01-25T08:39:15;103080.81;;;5.83;98.61
61506;BME280;47366;51.916;4.574;2024-01-25T08:41:41;103084.34;;;5.86;98.61
61506;BME280;47366;51.916;4.574;2024-01-25T08:44:07;103083.47;;;5.89;98.83
61506;BME280;47366;51.916;4.574;2024-01-25T08:46:32;103073.59;;;5.86;98.95
61506;BME280;47366;51.916;4.574;2024-01-25T08:48:58;103069.13;;;5.87;98.69
61506;BME280;47366;51.916;4.574;2024-01-25T08:51:23;103078.97;;;5.89;99.22
61506;BME280;47366;51.916;4.574;2024-01-25T08:53:49;103091.53;;;5.95;98.65
61506;BME280;47366;51.916;4.574;2024-01-25T08:56:16;103086.13;;;5.98;98.28
61506;BME280;47366;51.916;4.574;2024-01-25T08:58:42;103076.28;;;5.89;98.99
61506;BME280;47366;51.916;4.574;2024-01-25T09:01:07;103073.59;;;5.94;98.95
61506;BME280;47366;51.916;4.574;2024-01-25T09:03:33;103064.59;;;6.00;98.86
61506;BME280;47366;51.916;4.574;2024-01-25T09:05:58;103078.88;;;6.11;98.49
61506;BME280;47366;51.916;4.574;2024-01-25T09:08:23;103065.44;;;6.08;98.44
61506;BME280;47366;51.916;4.574;2024-01-25T09:10:49;103068.97;;;6.16;98.28
61506;BME280;47366;51.916;4.574;2024-01-25T09:13:14;103063.63;;;6.13;98.32
61506;BME280;47366;51.916;4.574;2024-01-25T09:15:40;103060.03;;;6.11;99.69
61506;BME280;47366;51.916;4.574;2024-01-25T09:18:06;103061.84;;;6.10;99.60
61506;BME280;47366;51.916;4.574;2024-01-25T09:20:31;103060.97;;;6.08;99.72
61506;BME280;47366;51.916;4.574;2024-01-25T09:22:56;103061.84;;;6.09;100.00
61506;BME280;47366;51.916;4.574;2024-01-25T09:25:22;103075.28;;;6.09;100.00
61506;BME280;47366;51.916;4.574;2024-01-25T09:27:48;103067.25;;;6.06;100.00
61506;BME280;47366;51.916;4.574;2024-01-25T09:30:14;103055.56;;;6.05;100.00
61506;BME280;47366;51.916;4.574;2024-01-25T09:32:39;103067.22;;;6.10;100.00
61506;BME280;47366;51.916;4.574;2024-01-25T09:35:05;103061.84;;;6.10;100.00
61506;BME280;47366;51.916;4.574;2024-01-25T09:37:30;103050.16;;;6.10;100.00
61506;BME280;47366;51.916;4.574;2024-01-25T09:39:56;103054.63;;;6.15;100.00
61506;BME280;47366;51.916;4.574;2024-01-25T09:42:24;103061.78;;;6.18;100.00
61506;BME280;47366;51.916;4.574;2024-01-25T09:44:50;103059.06;;;6.21;100.00
61506;BME280;47366;51.916;4.574;2024-01-25T09:47:17;103051.88;;;6.22;100.00
61506;BME280;47366;51.916;4.574;2024-01-25T09:49:44;103059.94;;;6.25;100.00
61506;BME280;47366;51.916;4.574;2024-01-25T09:52:12;103055.44;;;6.25;100.00
61506;BME280;47366;51.916;4.574;2024-01-25T09:54:38;103047.34;;;6.30;100.00
61506;BME280;47366;51.916;4.574;2024-01-25T09:57:08;103036.59;;;6.25;100.00
61506;BME280;47366;51.916;4.574;2024-01-25T09:59:38;103046.44;;;6.29;100.00
61506;BME280;47366;51.916;4.574;2024-01-25T10:02:04;103033.00;;;6.26;100.00
61506;BME280;47366;51.916;4.574;2024-01-25T10:04:29;103037.38;;;6.38;100.00
61506;BME280;47366;51.916;4.574;2024-01-25T10:06:55;103046.34;;;6.42;100.00
61506;BME280;47366;51.916;4.574;2024-01-25T10:09:21;103023.03;;;6.36;100.00
61506;BME280;47366;51.916;4.574;2024-01-25T10:11:48;103030.19;;;6.40;100.00
61506;BME280;47366;51.916;4.574;2024-01-25T10:14:13;103028.38;;;6.44;100.00
61506;BME280;47366;51.916;4.574;2024-01-25T10:16:38;103033.69;;;6.48;100.00
61506;BME280;47366;51.916;4.574;2024-01-25T10:19:06;103034.56;;;6.50;100.00
61506;BME280;47366;51.916;4.574;2024-01-25T10:21:32;103034.63;;;6.47;100.00
61506;BME280;47366;51.916;4.574;2024-01-25T10:24:00;103039.97;;;6.50;100.00
61506;BME280;47366;51.916;4.574;2024-01-25T10:26:26;103045.34;;;6.50;100.00
61506;BME280;47366;51.916;4.574;2024-01-25T10:28:53;103034.63;;;6.47;100.00
61506;BME280;47366;51.916;4.574;2024-01-25T10:31:23;103037.31;;;6.49;100.00
61506;BME280;47366;51.916;4.574;2024-01-25T10:33:52;103053.38;;;6.58;100.00
61506;BME280;47366;51.916;4.574;2024-01-25T10:36:20;103043.53;;;6.54;100.00
61506;BME280;47366;51.916;4.574;2024-01-25T10:38:48;103048.84;;;6.60;100.00
61506;BME280;47366;51.916;4.574;2024-01-25T10:41:14;103055.94;;;6.69;100.00
61506;BME280;47366;51.916;4.574;2024-01-25T10:43:40;103043.44;;;6.63;100.00
61506;BME280;47366;51.916;4.574;2024-01-25T10:46:06;103047.00;;;6.68;100.00
61506;BME280;47366;51.916;4.574;2024-01-25T10:48:32;103035.28;;;6.71;100.00
61506;BME280;47366;51.916;4.574;2024-01-25T10:50:58;103025.44;;;6.67;100.00
61506;BME280;47366;51.916;4.574;2024-01-25T10:53:30;103041.47;;;6.79;100.00
61506;BME280;47366;51.916;4.574;2024-01-25T10:55:56;103038.78;;;6.80;100.00
61506;BME280;47366;51.916;4.574;2024-01-25T10:58:22;103023.53;;;6.78;100.00
61506;BME280;47366;51.916;4.574;2024-01-25T11:00:57;102996.56;;;6.81;100.00
61506;BME280;47366;51.916;4.574;2024-01-25T11:03:28;102992.09;;;6.80;100.00
61506;BME280;47366;51.916;4.574;2024-01-25T11:06:10;102996.50;;;6.87;100.00
61506;BME280;47366;51.916;4.574;2024-01-25T11:08:35;102991.94;;;6.94;100.00
61506;BME280;47366;51.916;4.574;2024-01-25T11:11:05;102991.91;;;6.97;100.00
61506;BME280;47366;51.916;4.574;2024-01-25T11:13:31;102991.91;;;6.97;100.00
61506;BME280;47366;51.916;4.574;2024-01-25T11:15:57;102977.50;;;7.01;100.00
61506;BME280;47366;51.916;4.574;2024-01-25T11:18:25;102990.97;;;6.99;100.00
61506;BME280;47366;51.916;4.574;2024-01-25T11:20:51;103001.69;;;7.04;100.00
61506;BME280;47366;51.916;4.574;2024-01-25T11:23:16;102994.50;;;7.05;100.00
61506;BME280;47366;51.916;4.574;2024-01-25T11:25:45;102986.34;;;7.09;100.00
61506;BME280;47366;51.916;4.574;2024-01-25T11:28:15;102978.22;;;7.12;100.00
61506;BME280;47366;51.916;4.574;2024-01-25T11:30:43;102991.59;;;7.23;100.00
61506;BME280;47366;51.916;4.574;2024-01-25T11:33:08;102991.47;;;7.31;100.00
61506;BME280;47366;51.916;4.574;2024-01-25T11:35:35;102976.13;;;7.36;100.00
61506;BME280;47366;51.916;4.574;2024-01-25T11:38:00;102964.44;;;7.37;100.00
61506;BME280;47366;51.916;4.574;2024-01-25T11:40:26;102957.19;;;7.42;100.00
61506;BME280;47366;51.916;4.574;2024-01-25T11:42:53;102949.84;;;7.50;100.00
61506;BME280;47366;51.916;4.574;2024-01-25T11:45:18;102947.19;;;7.49;100.00
61506;BME280;47366;51.916;4.574;2024-01-25T11:47:44;102943.50;;;7.56;100.00
61506;BME280;47366;51.916;4.574;2024-01-25T11:50:12;102929.16;;;7.54;100.00
61506;BME280;47366;51.916;4.574;2024-01-25T11:52:38;102910.25;;;7.54;100.00
61506;BME280;47366;51.916;4.574;2024-01-25T11:55:05;102913.84;;;7.56;100.00
61506;BME280;47366;51.916;4.574;2024-01-25T11:57:32;102905.66;;;7.60;100.00
61506;BME280;47366;51.916;4.574;2024-01-25T12:00:00;102913.66;;;7.66;100.00
61506;BME280;47366;51.916;4.574;2024-01-25T12:02:26;102916.34;;;7.68;100.00
61506;BME280;47366;51.916;4.574;2024-01-25T12:04:52;102913.50;;;7.76;100.00
61506;BME280;47366;51.916;4.574;2024-01-25T12:07:19;102906.22;;;7.79;100.00
61506;BME280;47366;51.916;4.574;2024-01-25T12:09:59;102895.41;;;7.81;100.00
61506;BME280;47366;51.916;4.574;2024-01-25T12:12:25;102906.00;;;7.93;100.00
61506;BME280;47366;51.916;4.574;2024-01-25T12:14:50;102901.47;;;7.95;100.00
61506;BME280;47366;51.916;4.574;2024-01-25T12:17:17;102897.81;;;7.98;100.00
61506;BME280;47366;51.916;4.574;2024-01-25T12:19:43;102886.16;;;7.97;100.00
61506;BME280;47366;51.916;4.574;2024-01-25T12:22:08;102878.91;;;8.01;100.00
61506;BME280;47366;51.916;4.574;2024-01-25T12:24:35;102879.72;;;8.06;100.00
61506;BME280;47366;51.916;4.574;2024-01-25T12:27:00;102870.59;;;8.10;100.00
61506;BME280;47366;51.916;4.574;2024-01-25T12:29:25;102868.81;;;8.11;100.00
61506;BME280;47366;51.916;4.574;2024-01-25T12:31:51;102857.19;;;8.05;100.00
61506;BME280;47366;51.916;4.574;2024-01-25T12:34:16;102862.44;;;8.15;100.00
61506;BME280;47366;51.916;4.574;2024-01-25T12:36:41;102838.28;;;8.08;100.00
61506;BME280;47366;51.916;4.574;2024-01-25T12:39:07;102846.28;;;8.13;100.00
61506;BME280;47366;51.916;4.574;2024-01-25T12:41:33;102834.47;;;8.17;100.00
61506;BME280;47366;51.916;4.574;2024-01-25T12:43:58;102822.81;;;8.17;100.00
61506;BME280;47366;51.916;4.574;2024-01-25T12:46:24;102829.94;;;8.19;100.00
61506;BME280;47366;51.916;4.574;2024-01-25T12:48:49;102834.31;;;8.26;100.00
61506;BME280;47366;51.916;4.574;2024-01-25T12:51:19;102825.41;;;8.23;100.00
61506;BME280;47366;51.916;4.574;2024-01-25T12:53:46;102821.66;;;8.28;100.00